createdAt,value
2024-05-09T00:00:40.336Z,99.90
2024-05-09T00:03:09.866Z,99.90
2024-05-09T00:05:38.488Z,99.90
2024-05-09T00:08:06.146Z,99.90
2024-05-09T00:10:37.006Z,99.90
2024-05-09T00:13:06.990Z,99.90
2024-05-09T00:15:34.919Z,99.90
2024-05-09T00:18:03.252Z,99.90
2024-05-09T00:20:37.646Z,99.90
2024-05-09T00:23:12.312Z,99.90
2024-05-09T00:25:42.355Z,99.90
2024-05-09T00:28:09.495Z,99.90
2024-05-09T00:30:37.356Z,99.90
2024-05-09T00:33:09.604Z,99.90
2024-05-09T00:35:37.738Z,99.90
2024-05-09T00:38:05.117Z,99.90
2024-05-09T00:40:40.361Z,99.90
2024-05-09T00:43:10.226Z,99.90
2024-05-09T00:45:37.338Z,99.90
2024-05-09T00:48:07.509Z,99.90
2024-05-09T00:50:38.613Z,99.90
2024-05-09T00:53:07.981Z,99.90
2024-05-09T00:55:36.507Z,99.90
2024-05-09T00:58:05.439Z,99.90
2024-05-09T01:00:38.819Z,99.90
2024-05-09T01:03:09.241Z,99.90
2024-05-09T01:05:39.154Z,99.90
2024-05-09T01:08:07.111Z,99.90
2024-05-09T01:10:35.574Z,99.90
2024-05-09T01:13:07.274Z,99.90
2024-05-09T01:15:34.578Z,99.90
2024-05-09T01:18:06.898Z,99.90
2024-05-09T01:20:41.121Z,99.90
2024-05-09T01:23:11.621Z,99.90
2024-05-09T01:25:39.020Z,99.90
2024-05-09T01:28:06.322Z,99.90
2024-05-09T01:30:35.900Z,99.90
2024-05-09T01:33:07.286Z,99.90
2024-05-09T01:35:36.337Z,99.90
2024-05-09T01:38:03.292Z,99.90
2024-05-09T01:40:37.264Z,99.90
2024-05-09T01:43:07.362Z,99.90
2024-05-09T01:45:34.418Z,99.90
2024-05-09T01:48:01.970Z,99.90
2024-05-09T01:50:37.769Z,99.90
2024-05-09T01:53:12.667Z,99.90
2024-05-09T01:55:40.203Z,99.90
2024-05-09T01:58:07.409Z,99.90
2024-05-09T02:00:39.754Z,99.90
2024-05-09T02:03:47.809Z,99.90
2024-05-09T02:06:14.992Z,99.90
2024-05-09T02:08:42.029Z,99.90
2024-05-09T02:11:10.644Z,99.90
2024-05-09T02:13:37.552Z,99.90
2024-05-09T02:16:04.766Z,99.90
2024-05-09T02:18:31.718Z,99.90
2024-05-09T02:20:58.699Z,99.90
2024-05-09T02:23:25.688Z,99.90
2024-05-09T02:25:52.698Z,99.90
2024-05-09T02:28:21.302Z,99.90
2024-05-09T02:30:48.187Z,99.90
2024-05-09T02:33:15.256Z,99.90
2024-05-09T02:35:43.881Z,99.90
2024-05-09T02:38:11.730Z,99.90
2024-05-09T02:40:39.959Z,99.90
2024-05-09T02:43:09.612Z,99.90
2024-05-09T02:45:37.963Z,99.90
2024-05-09T02:48:05.558Z,99.90
2024-05-09T02:50:38.011Z,99.90
2024-05-09T02:53:13.849Z,99.90
2024-05-09T02:55:42.295Z,99.90
2024-05-09T02:58:10.082Z,99.90
2024-05-09T03:00:40.663Z,99.90
2024-05-09T03:03:11.846Z,99.90
2024-05-09T03:05:41.224Z,99.90
2024-05-09T03:08:08.434Z,99.90
2024-05-09T03:10:37.810Z,99.90
2024-05-09T03:13:12.769Z,99.90
2024-05-09T03:15:40.926Z,99.90
2024-05-09T03:18:08.644Z,99.90
2024-05-09T03:20:36.809Z,99.90
2024-05-09T03:23:05.678Z,99.90
2024-05-09T03:25:33.043Z,99.90
2024-05-09T03:27:59.975Z,99.90
2024-05-09T03:30:38.503Z,99.90
2024-05-09T03:33:19.777Z,99.90
2024-05-09T03:35:48.537Z,99.90
2024-05-09T03:38:16.118Z,99.90
2024-05-09T03:40:50.758Z,99.90
2024-05-09T03:43:19.049Z,99.90
2024-05-09T03:45:47.834Z,99.90
2024-05-09T03:48:14.875Z,99.90
2024-05-09T03:50:42.310Z,99.90
2024-05-09T03:53:12.870Z,99.90
2024-05-09T03:55:40.191Z,99.90
2024-05-09T03:58:08.050Z,99.90
2024-05-09T04:00:38.901Z,99.90
2024-05-09T04:03:09.702Z,99.90
2024-05-09T04:05:40.604Z,99.90
2024-05-09T04:08:08.946Z,99.90
2024-05-09T04:10:35.965Z,99.90
2024-05-09T04:13:04.082Z,99.90
2024-05-09T04:15:31.635Z,99.90
2024-05-09T04:17:58.952Z,99.90
2024-05-09T04:20:36.226Z,99.90
2024-05-09T04:23:08.070Z,99.90
2024-05-09T04:25:37.220Z,99.90
2024-05-09T04:28:04.640Z,99.90
2024-05-09T04:30:37.942Z,99.90
2024-05-09T04:33:10.112Z,99.90
2024-05-09T04:35:39.210Z,99.90
2024-05-09T04:38:06.400Z,99.90
2024-05-09T04:40:36.077Z,99.90
2024-05-09T04:43:05.377Z,99.90
2024-05-09T04:45:32.525Z,99.90
2024-05-09T04:47:59.784Z,99.90
2024-05-09T04:50:35.519Z,99.90
2024-05-09T04:53:10.098Z,99.90
2024-05-09T04:55:38.352Z,99.90
2024-05-09T04:58:07.838Z,99.90
2024-05-09T05:00:37.321Z,99.90
2024-05-09T05:03:13.208Z,99.90
2024-05-09T05:05:42.587Z,99.90
2024-05-09T05:08:14.025Z,99.90
2024-05-09T05:10:41.966Z,99.90
2024-05-09T05:13:24.992Z,99.90
2024-05-09T05:15:56.069Z,99.90
2024-05-09T05:18:24.988Z,99.90
2024-05-09T05:20:52.629Z,99.90
2024-05-09T05:23:21.198Z,99.90
2024-05-09T05:25:49.436Z,99.90
2024-05-09T05:28:17.345Z,99.90
2024-05-09T05:30:44.462Z,99.90
2024-05-09T05:33:13.089Z,99.90
2024-05-09T05:35:41.015Z,99.90
2024-05-09T05:38:08.740Z,99.90
2024-05-09T05:40:38.426Z,99.90
2024-05-09T05:43:08.469Z,99.90
2024-05-09T05:45:35.573Z,99.90
2024-05-09T05:48:04.222Z,99.90
2024-05-09T05:50:36.013Z,99.90
2024-05-09T05:53:09.111Z,99.90
2024-05-09T05:55:37.683Z,99.90
2024-05-09T05:58:04.920Z,99.90
2024-05-09T06:00:38.427Z,99.90
2024-05-09T06:03:09.289Z,99.90
2024-05-09T06:05:39.771Z,99.90
2024-05-09T06:08:07.576Z,99.90
2024-05-09T06:10:38.631Z,99.90
2024-05-09T06:13:08.056Z,99.90
2024-05-09T06:15:35.097Z,99.90
2024-05-09T06:18:04.624Z,99.90
2024-05-09T06:20:35.985Z,99.90
2024-05-09T06:23:06.776Z,99.90
2024-05-09T06:25:35.012Z,99.90
2024-05-09T06:28:02.513Z,99.90
2024-05-09T06:30:37.545Z,99.90
2024-05-09T06:33:09.103Z,99.90
2024-05-09T06:35:37.093Z,99.90
2024-05-09T06:38:04.837Z,99.90
2024-05-09T06:40:37.896Z,99.90
2024-05-09T06:43:18.313Z,99.90
2024-05-09T06:45:52.564Z,99.90
2024-05-09T06:48:20.491Z,99.90
2024-05-09T06:50:48.149Z,99.90
2024-05-09T06:53:15.509Z,99.90
2024-05-09T06:55:42.803Z,99.90
2024-05-09T06:58:09.834Z,99.90
2024-05-09T07:00:39.915Z,99.90
2024-05-09T07:03:15.371Z,99.90
2024-05-09T07:05:45.284Z,99.90
2024-05-09T07:08:13.508Z,99.90
2024-05-09T07:10:40.380Z,99.90
2024-05-09T07:13:11.178Z,99.90
2024-05-09T07:15:38.571Z,99.90
2024-05-09T07:18:18.362Z,99.90
2024-05-09T07:20:47.192Z,99.90
2024-05-09T07:23:15.285Z,99.90
2024-05-09T07:25:42.612Z,99.90
2024-05-09T07:28:17.397Z,99.90
2024-05-09T07:30:44.872Z,99.90
2024-05-09T07:33:20.217Z,99.90
2024-05-09T07:35:48.619Z,99.90
2024-05-09T07:38:15.618Z,99.90
2024-05-09T07:40:43.040Z,99.90
2024-05-09T07:43:14.187Z,99.90
2024-05-09T07:45:50.645Z,99.90
2024-05-09T07:53:39.395Z,99.90
2024-05-09T07:56:10.212Z,99.90
2024-05-09T07:58:39.020Z,99.90
2024-05-09T08:01:06.230Z,99.90
2024-05-09T08:03:34.343Z,99.90
2024-05-09T08:06:01.499Z,99.90
2024-05-09T08:08:28.445Z,99.90
2024-05-09T08:10:55.502Z,99.90
2024-05-09T08:13:22.687Z,99.90
2024-05-09T08:15:49.745Z,99.90
2024-05-09T08:18:17.857Z,99.90
2024-05-09T08:20:48.450Z,99.90
2024-05-09T08:23:15.479Z,99.90
2024-05-09T08:25:42.381Z,99.90
2024-05-09T08:28:10.075Z,99.90
2024-05-09T08:30:38.187Z,99.90
2024-05-09T08:33:06.950Z,99.90
2024-05-09T08:35:35.164Z,99.90
2024-05-09T08:38:03.645Z,99.90
2024-05-09T08:40:35.649Z,99.90
2024-05-09T08:43:08.238Z,99.90
2024-05-09T08:45:36.724Z,99.90
2024-05-09T08:48:07.875Z,99.90
2024-05-09T08:50:39.097Z,99.90
2024-05-09T08:53:08.079Z,99.90
2024-05-09T08:55:39.425Z,99.90
2024-05-09T08:58:13.595Z,99.90
2024-05-09T09:00:43.154Z,99.90
2024-05-09T09:03:15.043Z,99.90
2024-05-09T09:05:52.612Z,99.90
2024-05-09T09:08:20.385Z,99.90
2024-05-09T09:10:47.889Z,99.90
2024-05-09T09:13:14.943Z,99.90
2024-05-09T09:15:48.813Z,99.90
2024-05-09T09:18:16.850Z,99.90
2024-05-09T09:20:44.568Z,99.90
2024-05-09T09:23:11.548Z,99.90
2024-05-09T09:25:42.036Z,99.90
2024-05-09T09:28:09.558Z,99.90
2024-05-09T09:30:45.837Z,99.90
2024-05-09T09:33:13.018Z,99.90
2024-05-09T09:35:42.244Z,99.90
2024-05-09T09:38:10.791Z,99.90
2024-05-09T09:40:46.661Z,99.90
2024-05-09T09:43:21.690Z,99.90
2024-05-09T09:45:52.929Z,99.90
2024-05-09T09:48:21.389Z,99.90
2024-05-09T09:50:51.125Z,99.90
2024-05-09T09:53:18.969Z,99.90
2024-05-09T09:55:46.980Z,99.90
2024-05-09T09:58:17.059Z,99.90
2024-05-09T10:00:44.944Z,99.90
2024-05-09T10:03:12.275Z,99.90
2024-05-09T10:05:42.053Z,99.90
2024-05-09T10:08:12.048Z,99.90
2024-05-09T10:10:39.061Z,99.90
2024-05-09T10:13:07.396Z,99.90
2024-05-09T10:15:53.052Z,99.90
2024-05-09T10:18:27.056Z,99.90
2024-05-09T10:20:56.426Z,99.90
2024-05-09T10:23:24.778Z,99.90
2024-05-09T10:25:58.919Z,99.90
2024-05-09T10:28:29.842Z,99.90
2024-05-09T10:31:11.017Z,99.90
2024-05-09T10:33:50.323Z,99.90
2024-05-09T10:36:23.271Z,99.90
2024-05-09T10:38:50.906Z,99.90
2024-05-09T10:41:18.452Z,99.90
2024-05-09T10:43:45.549Z,99.90
2024-05-09T10:46:12.559Z,99.90
2024-05-09T10:48:42.084Z,99.90
2024-05-09T10:51:09.661Z,99.90
2024-05-09T10:53:44.147Z,99.90
2024-05-09T10:56:12.980Z,99.90
2024-05-09T10:58:40.181Z,99.90
2024-05-09T11:01:08.727Z,99.90
2024-05-09T11:03:36.569Z,99.90
2024-05-09T11:06:04.203Z,99.90
2024-05-09T11:08:32.276Z,99.90
2024-05-09T11:11:00.155Z,99.90
2024-05-09T11:13:31.247Z,99.90
2024-05-09T11:15:59.975Z,99.90
2024-05-09T11:18:33.817Z,99.90
2024-05-09T11:21:11.135Z,99.90
2024-05-09T11:23:38.340Z,99.90
2024-05-09T11:26:05.370Z,99.90
2024-05-09T11:28:32.364Z,99.90
2024-05-09T11:31:10.274Z,99.90
2024-05-09T11:33:43.748Z,99.90
2024-05-09T11:36:11.198Z,99.90
2024-05-09T11:38:38.155Z,99.90
2024-05-09T11:41:05.937Z,99.90
2024-05-09T11:43:33.164Z,99.90
2024-05-09T11:46:01.136Z,99.90
2024-05-09T11:48:28.522Z,99.90
2024-05-09T11:50:56.676Z,99.90
2024-05-09T11:53:23.602Z,99.90
2024-05-09T11:55:50.609Z,99.90
2024-05-09T11:58:18.723Z,99.90
2024-05-09T12:00:46.976Z,99.90
2024-05-09T12:03:14.461Z,99.90
2024-05-09T12:05:41.619Z,99.90
2024-05-09T12:08:08.755Z,99.90
2024-05-09T12:10:36.876Z,99.90
2024-05-09T12:13:06.091Z,99.90
2024-05-09T12:15:36.885Z,99.90
2024-05-09T12:18:05.076Z,99.90
2024-05-09T12:20:37.378Z,99.90
2024-05-09T12:23:06.929Z,99.90
2024-05-09T12:25:34.763Z,99.90
2024-05-09T12:28:01.828Z,99.90
2024-05-09T12:30:36.171Z,99.90
2024-05-09T12:33:07.683Z,99.90
2024-05-09T12:35:34.853Z,99.90
2024-05-09T12:38:01.967Z,99.90
2024-05-09T12:40:35.763Z,99.90
2024-05-09T12:43:09.621Z,99.90
2024-05-09T12:45:38.027Z,99.90
2024-05-09T12:48:08.296Z,99.90
2024-05-09T12:50:36.192Z,99.90
2024-05-09T12:53:04.397Z,99.90
2024-05-09T12:55:40.441Z,99.90
2024-05-09T12:58:16.063Z,99.90
2024-05-09T13:00:43.767Z,99.90
2024-05-09T13:03:11.095Z,99.90
2024-05-09T13:05:38.088Z,99.90
2024-05-09T13:08:05.450Z,99.90
2024-05-09T13:10:33.441Z,99.90
2024-05-09T13:13:01.910Z,99.90
2024-05-09T13:15:31.292Z,99.90
2024-05-09T13:18:02.238Z,99.90
2024-05-09T13:20:33.886Z,99.90
2024-05-09T13:23:04.025Z,99.90
2024-05-09T13:25:31.243Z,99.90
2024-05-09T13:27:58.609Z,99.90
2024-05-09T13:30:30.235Z,99.90
2024-05-09T13:33:06.853Z,99.90
2024-05-09T13:35:35.498Z,99.90
2024-05-09T13:38:03.951Z,99.90
2024-05-09T13:40:34.585Z,99.90
2024-05-09T13:43:06.018Z,99.90
2024-05-09T13:45:33.640Z,99.90
2024-05-09T13:48:02.222Z,99.90
2024-05-09T13:50:34.632Z,99.90
2024-05-09T13:53:05.977Z,99.90
2024-05-09T13:55:34.047Z,99.90
2024-05-09T13:58:01.648Z,99.90
2024-05-09T14:00:41.760Z,99.90
2024-05-09T14:03:14.095Z,99.90
2024-05-09T14:05:41.578Z,99.90
2024-05-09T14:08:08.870Z,99.90
2024-05-09T14:10:35.858Z,99.90
2024-05-09T14:13:02.919Z,99.90
2024-05-09T14:15:29.895Z,99.90
2024-05-09T14:17:56.937Z,99.90
2024-05-09T14:20:30.729Z,99.90
2024-05-09T14:23:01.822Z,99.90
2024-05-09T14:25:30.442Z,99.90
2024-05-09T14:28:00.567Z,99.90
2024-05-09T14:30:34.816Z,99.90
2024-05-09T14:33:06.166Z,99.90
2024-05-09T14:35:33.945Z,99.90
2024-05-09T14:38:00.888Z,99.90
2024-05-09T14:40:38.185Z,99.90
2024-05-09T14:43:10.082Z,99.90
2024-05-09T14:45:37.215Z,99.90
2024-05-09T14:48:04.496Z,99.90
2024-05-09T14:50:36.753Z,99.90
2024-05-09T14:53:07.579Z,99.90
2024-05-09T14:55:37.394Z,99.90
2024-05-09T14:58:09.620Z,99.90
2024-05-09T15:00:45.692Z,99.90
2024-05-09T15:03:17.005Z,99.90
2024-05-09T15:05:45.064Z,99.90
2024-05-09T15:08:12.157Z,99.90
2024-05-09T15:10:39.289Z,99.90
2024-05-09T15:13:08.049Z,99.90
2024-05-09T15:15:36.978Z,99.90
2024-05-09T15:18:05.502Z,99.90
2024-05-09T15:20:36.159Z,99.90
2024-05-09T15:23:06.559Z,99.90
2024-05-09T15:25:34.817Z,99.90
2024-05-09T15:28:01.939Z,99.90
2024-05-09T15:30:32.128Z,99.90
2024-05-09T15:33:03.182Z,99.90
2024-05-09T15:35:30.191Z,99.90
2024-05-09T15:37:57.046Z,99.90
2024-05-09T15:40:34.484Z,99.90
2024-05-09T15:43:06.788Z,99.90
2024-05-09T15:45:34.714Z,99.90
2024-05-09T15:48:03.259Z,99.90
2024-05-09T15:50:37.207Z,99.90
2024-05-09T15:53:08.902Z,99.90
2024-05-09T15:55:36.788Z,99.90
2024-05-09T15:58:04.943Z,99.90
2024-05-09T16:00:38.211Z,99.90
2024-05-09T16:03:09.460Z,99.90
2024-05-09T16:05:37.213Z,99.90
2024-05-09T16:08:05.159Z,99.90
2024-05-09T16:10:33.976Z,99.90
2024-05-09T16:13:02.537Z,99.90
2024-05-09T16:15:30.264Z,99.90
2024-05-09T16:17:57.520Z,99.90
2024-05-09T16:20:34.297Z,99.90
2024-05-09T16:23:07.603Z,99.90
2024-05-09T16:25:34.678Z,99.40
2024-05-09T16:28:03.375Z,99.40
2024-05-09T16:30:35.363Z,99.10
2024-05-09T16:33:04.764Z,98.00
2024-05-09T16:35:32.507Z,98.00
2024-05-09T16:38:01.261Z,98.50
2024-05-09T16:40:36.187Z,99.20
2024-05-09T16:43:07.602Z,99.80
2024-05-09T16:45:35.039Z,97.80
2024-05-09T16:48:02.946Z,97.50
2024-05-09T16:50:33.772Z,97.80
2024-05-09T16:53:06.460Z,96.70
2024-05-09T16:55:34.531Z,95.50
2024-05-09T16:58:02.611Z,94.30
2024-05-09T17:00:39.076Z,94.10
2024-05-09T17:03:11.699Z,94.90
2024-05-09T17:05:39.769Z,94.60
2024-05-09T17:08:07.442Z,93.60
2024-05-09T17:10:36.199Z,94.60
2024-05-09T17:13:05.012Z,94.20
2024-05-09T17:15:33.765Z,94.20
2024-05-09T17:18:01.626Z,93.70
2024-05-09T17:20:33.555Z,94.40
2024-05-09T17:23:04.824Z,94.50
2024-05-09T17:25:32.571Z,94.80
2024-05-09T17:28:06.345Z,96.20
2024-05-09T17:30:37.255Z,97.60
2024-05-09T17:33:07.452Z,99.00
2024-05-09T17:35:35.982Z,99.90
2024-05-09T17:38:03.128Z,99.90
2024-05-09T17:40:34.942Z,99.90
2024-05-09T17:43:05.381Z,99.90
2024-05-09T17:45:33.111Z,99.90
2024-05-09T17:48:00.949Z,99.90
2024-05-09T17:50:34.960Z,99.90
2024-05-09T17:53:04.587Z,99.90
2024-05-09T17:55:31.795Z,99.90
2024-05-09T17:57:58.824Z,99.90
2024-05-09T18:02:56.062Z,99.90
2024-05-09T18:05:23.110Z,99.90
2024-05-09T18:07:50.150Z,99.90
2024-05-09T18:10:25.210Z,99.90
2024-05-09T18:12:56.669Z,99.90
2024-05-09T18:15:23.592Z,99.90
2024-05-09T18:17:52.075Z,99.90
2024-05-09T18:20:28.696Z,99.90
2024-05-09T18:23:05.519Z,99.90
2024-05-09T18:25:32.413Z,99.90
2024-05-09T18:27:59.334Z,99.90
2024-05-09T18:30:32.390Z,99.90
2024-05-09T18:33:02.470Z,99.90
2024-05-09T18:35:29.607Z,99.90
2024-05-09T18:37:56.619Z,99.90
2024-05-09T18:42:53.353Z,99.90
2024-05-09T18:45:20.310Z,99.90
2024-05-09T18:47:47.533Z,99.90
2024-05-09T18:50:20.916Z,99.90
2024-05-09T18:52:55.618Z,99.90
2024-05-09T18:55:22.587Z,99.90
2024-05-09T18:57:49.540Z,99.90
2024-05-09T19:00:30.725Z,99.90
2024-05-09T19:03:02.438Z,99.90
2024-05-09T19:05:29.531Z,99.90
2024-05-09T19:07:56.714Z,99.90
2024-05-09T19:10:28.663Z,99.90
2024-05-09T19:12:59.071Z,99.90
2024-05-09T19:15:25.939Z,99.90
2024-05-09T19:17:52.970Z,99.90
2024-05-09T19:20:25.531Z,99.90
2024-05-09T19:23:05.235Z,99.90
2024-05-09T19:25:36.375Z,99.90
2024-05-09T19:28:04.731Z,99.90
2024-05-09T19:30:38.864Z,99.90
2024-05-09T19:33:09.971Z,99.90
2024-05-09T19:35:37.775Z,99.90
2024-05-09T19:38:05.225Z,99.90
2024-05-09T19:40:34.119Z,99.90
2024-05-09T19:43:03.188Z,99.90
2024-05-09T19:45:32.238Z,99.90
2024-05-09T19:47:59.359Z,99.90
2024-05-09T19:50:32.847Z,99.90
2024-05-09T19:53:08.214Z,99.90
2024-05-09T19:55:35.259Z,99.90
2024-05-09T19:58:05.227Z,99.90
2024-05-09T20:00:39.906Z,99.90
2024-05-09T20:03:10.127Z,99.90
2024-05-09T20:05:37.964Z,99.90
2024-05-09T20:08:06.105Z,99.90
2024-05-09T20:10:35.390Z,99.90
2024-05-09T20:13:05.791Z,99.90
2024-05-09T20:15:35.233Z,99.90
2024-05-09T20:18:04.398Z,99.90
2024-05-09T20:20:37.822Z,99.90
2024-05-09T20:23:09.138Z,99.90
2024-05-09T20:25:36.198Z,99.90
2024-05-09T20:28:03.394Z,99.90
2024-05-09T20:30:32.974Z,99.90
2024-05-09T20:33:07.233Z,99.90
2024-05-09T20:35:35.692Z,99.90
2024-05-09T20:38:03.590Z,99.90
2024-05-09T20:40:35.406Z,99.90
2024-05-09T20:43:06.217Z,99.90
2024-05-09T20:45:33.777Z,99.90
2024-05-09T20:48:01.437Z,99.90
2024-05-09T20:50:36.801Z,99.90
2024-05-09T20:53:12.369Z,99.90
2024-05-09T20:55:40.733Z,99.90
2024-05-09T20:58:08.420Z,99.90
2024-05-09T21:00:40.176Z,99.90
2024-05-09T21:03:11.487Z,99.90
2024-05-09T21:05:39.187Z,99.90
2024-05-09T21:08:06.484Z,99.90
2024-05-09T21:10:34.579Z,99.90
2024-05-09T21:13:03.148Z,99.90
2024-05-09T21:15:31.185Z,99.90
2024-05-09T21:17:58.597Z,99.90
2024-05-09T21:20:31.116Z,99.90
2024-05-09T21:22:59.622Z,99.90
2024-05-09T21:25:26.574Z,99.90
2024-05-09T21:27:53.718Z,99.90
2024-05-09T21:30:32.287Z,99.90
2024-05-09T21:33:12.436Z,99.90
2024-05-09T21:35:41.498Z,99.90
2024-05-09T21:38:08.493Z,99.90
2024-05-09T21:40:36.737Z,99.90
2024-05-09T21:43:05.444Z,99.90
2024-05-09T21:45:33.247Z,99.90
2024-05-09T21:48:00.371Z,99.90
2024-05-09T21:50:36.364Z,99.90
2024-05-09T21:53:07.487Z,99.90
2024-05-09T21:55:34.562Z,99.90
2024-05-09T21:58:01.702Z,99.90
2024-05-09T22:00:35.526Z,99.90
2024-05-09T22:03:05.952Z,99.90
2024-05-09T22:05:33.267Z,99.90
2024-05-09T22:08:00.337Z,99.90
2024-05-09T22:10:33.401Z,99.90
2024-05-09T22:13:02.793Z,99.90
2024-05-09T22:15:29.718Z,99.90
2024-05-09T22:17:57.572Z,99.90
2024-05-09T22:20:33.733Z,99.90
2024-05-09T22:23:04.610Z,99.90
2024-05-09T22:25:32.334Z,99.90
2024-05-09T22:28:00.922Z,99.90
2024-05-09T22:30:35.604Z,99.90
2024-05-09T22:33:10.989Z,99.90
2024-05-09T22:35:39.646Z,99.90
2024-05-09T22:38:06.809Z,99.90
2024-05-09T22:40:43.311Z,99.90
2024-05-09T22:43:21.086Z,99.90
2024-05-09T22:45:50.247Z,99.90
2024-05-09T22:48:18.104Z,99.90
2024-05-09T22:50:45.165Z,99.90
2024-05-09T22:53:12.029Z,99.90
2024-05-09T22:55:38.892Z,99.90
2024-05-09T22:58:05.846Z,99.90
2024-05-09T23:00:33.426Z,99.90
2024-05-09T23:03:01.722Z,99.90
2024-05-09T23:05:29.531Z,99.90
2024-05-09T23:07:56.678Z,99.90
2024-05-09T23:10:31.683Z,99.90
2024-05-09T23:13:03.348Z,99.90
2024-05-09T23:15:30.436Z,99.90
2024-05-09T23:17:58.280Z,99.90
2024-05-09T23:20:35.538Z,99.90
2024-05-09T23:23:06.420Z,99.90
2024-05-09T23:25:33.459Z,99.90
2024-05-09T23:28:00.563Z,99.90
2024-05-09T23:30:36.057Z,99.90
2024-05-09T23:33:06.665Z,99.90
2024-05-09T23:35:33.803Z,99.90
2024-05-09T23:38:00.686Z,99.90
2024-05-09T23:40:37.444Z,99.90
2024-05-09T23:43:08.456Z,99.90
2024-05-09T23:45:35.836Z,99.90
2024-05-09T23:48:03.602Z,99.90
2024-05-09T23:50:35.070Z,99.90
2024-05-09T23:53:05.736Z,99.90
2024-05-09T23:55:33.112Z,99.90
2024-05-09T23:58:00.797Z,99.90
